Contact Us:
Email: info@sawbill.com
Phone: (218)663-7150
Fax: (218)663-7980
Mail: 4620 Sawbill Trail
Box 2129
Tofte, MN 55615


Powered by
Movable Type 3.15
 
Sawbill Weather History Archives: March 2014
Current Sawbill Weather History | « February 2014 | April 2014 »


Date

High
Temperature

Low
Temperature

Barometric
Pressure

Relative
Humidity 7AM

9 AM
Temperature

Moisture

Snow

3/31/14 42 12 29.74 65% 12 .05" .5"
3/30/14 48 27 30.01 57% 37 0
3/29/14 35 7 30.02 67% 27 0
3/28/14 29 7 30.19 51% 7 0
3/27/14 28 12 30.05 64% 12 .25" 2.5"
3/26/14 24 -6 29.85 73% 22 .01" 1"
3/25/14 14 -10 30.06 44% -6 0
3/24/14 21 -2 30.05 53% -2 Trace Trace
3/23/14 15 -7 30.13 45% -1 Trace Trace
3/22/14 12 -5 30.27 61% -2 Trace Trace
3/21/14 31 4 30.12 61% 4 .5" 5"
3/20/14 34 18 30.00 65% 20 0
3/19/14 29 20 30.02 75% 24 Trace Trace
3/18/14 28 20 29.96 75% 20 Trace Trace
3/17/14 22 14 30.00 78% 22 0
3/16/14 21 -15 29.88 72% 14 .1" 1"
3/15/14 14 -19 30.31 39% -15 0
3/14/14 34 4 30.12 61% 7 .14" 1.5"
3/13/14 39 5 29.74 79% 34 0
3/12/14 15 -2 29.97 48% 5 0
3/11/14 35 -2 30.10 42% -2 0
3/10/14 47 28 29.86 61% 29 0
3/9/14 39 23 29.74 81% 23 0
3/8/14 23 8 29.86 63% 23 0
3/7/14 26 10 30.20 56% 10 Trace Trace
3/6/14 25 9 29.96 80% 24 .14" 1"
3/5/14 10 0 30.14 40% 9 0
3/4/14 15 -14 30.38 40% 0 Trace Trace
3/3/14 9 -13 30.16 64% -4 Trace Trace
3/2/14 0 -22 30.28 65% -13 0
3/1/14 -4 -24 30.22 56% -22 0
 


Home I Trip Planning I Rentals and Outfitting I Reservations I Campgrounds I Sawbill Store I Sawbill News I Contact

© 1997 - 2017, Sawbill Canoe Outfitters, Inc. I Privacy Policy